Flight Track Log - Related Links

Times and Time Zones

All times are in EDT time to prevent confusion due to time zone crossing. See the ASQ4372 flight status page for this flight to view local times or setup timezone preferences in your user account.


Time Position Orientation Groundspeed Altitude Reporting Facility
EDT Latitude Longitude Course Direction KTS MPH feet Rate Location/Type
Thu 05:32:15 PM 38.8667 -77.0500 62° Northeast 160 184 900  Level Potomac TRACON
Thu 05:33:16 PM 38.9167 -77.1000 322° Northwest 204 235 2,600 1,884 Climbing Potomac TRACON
Thu 05:34:16 PM 38.9500 -77.1500 311° West 251 289 4,700 1,935 Climbing Potomac TRACON
Thu 05:35:20 PM 39.0106 -77.1364 10° North 257 296 6,600 1,937 Climbing Washington Center
Thu 05:36:23 PM 39.0242 -77.0331 80° East 285 328 8,800 2,177 Climbing Washington Center
Thu 05:37:00 PM 39.0395 -76.4953 62° Northeast  Level FlightAware Approximate
Thu 05:37:24 PM 39.0447 -76.9069 78° East 300 345 11,100  Level Washington Center
Thu 05:38:28 PM 39.0628 -76.7931 78° East 321 369 12,700 1,500 Climbing Washington Center
Thu 05:39:28 PM 39.0817 -76.6750 78° East 332 382 14,200 1,210 Climbing Washington Center
Thu 05:40:32 PM 39.1019 -76.5483 78° East 357 411 15,200 968 Climbing Washington Center
Thu 05:41:32 PM 39.1250 -76.4108 78° East 382 440 16,200 871 Climbing Washington Center
Thu 05:42:36 PM 39.1472 -76.2689 79° East 400 460 17,000 339 Climbing Washington Center
Thu 05:43:36 PM 39.2208 -76.1458 52° Northeast 422 486 16,900 -48 Descending Washington Center
Thu 05:44:40 PM 39.3086 -76.0425 42° Northeast 426 490 16,900 48 Level Washington Center
Thu 05:45:41 PM 39.4172 -75.9192 41° Northeast 430 495 17,000 48 Climbing Washington Center
Thu 05:46:45 PM 39.5047 -75.8147 43° Northeast 430 495 17,000  Level Washington Center
Thu 05:47:46 PM 39.5931 -75.7092 43° Northeast 432 497 17,000  Level Washington Center
Thu 05:48:50 PM 39.6808 -75.6025 43° Northeast 430 495 17,000 -50 Level Washington Center
Thu 05:49:45 PM 39.7761 -75.4883 43° Northeast 430 495 16,900 -50 Descending New York Center
Thu 05:50:51 PM 39.8625 -75.3844 43° Northeast 429 494 16,900 -667 Level New York Center
Thu 05:51:51 PM 39.9525 -75.2756 43° Northeast 427 491 15,500 -1,835 Descending New York Center
Thu 05:52:52 PM 40.0336 -75.1769 43° Northeast 398 458 13,200 -2,031 Descending New York Center
Thu 05:53:58 PM 40.1161 -75.0775 43° Northeast 371 427 11,200 -1,619 Descending New York Center
Thu 05:54:58 PM 40.1819 -74.9961 43° Northeast 328 377 9,800 -1,463 Descending New York Center
Thu 05:56:01 PM 40.2469 -74.9158 43° Northeast 295 339 8,200 -871 Descending New York Center
Thu 05:57:02 PM 40.3006 -74.8419 46° Northeast 280 322 8,000 -646 Descending New York Center
Thu 05:58:11 PM 40.3667 -74.7500 47° Northeast 275 316 6,800 -952 Descending New York TRACON
Thu 05:59:08 PM 40.3914 -74.6836 64° Northeast 256 295 6,000 -915 Descending New York Center
Thu 06:00:09 PM 40.3764 -74.5989 103° East 228 262 5,000 -829 Descending New York Center
Thu 06:01:11 PM 40.3500 -74.5167 113° Southeast 230 265 4,300 -787 Descending New York TRACON
Thu 06:02:11 PM 40.3667 -74.4333 75° East 234 269 3,400 -650 Descending New York TRACON
Thu 06:03:11 PM 40.3833 -74.3500 75° East 226 260 3,000 -211 Descending New York TRACON
Thu 06:04:05 PM 40.4333 -74.3167 27° Northeast 220 253 3,000  Level New York TRACON
Thu 06:05:05 PM 40.5000 -74.2833 21° North 228 262 3,000 -95 Level New York TRACON
Thu 06:06:11 PM 40.5500 -74.2500 27° Northeast 159 183 2,800 -548 Descending New York TRACON
Thu 06:08:11 PM 40.6167 -74.2167 21° North 148 170 1,300 -733 Descending New York TRACON
Thu 06:09:11 PM 40.6500 -74.1833 37° Northeast 131 151 600 -700 Descending New York TRACON

Login

Don't have an account? Register now (free) for customized features, flight alerts, and more!